Lehigh Acres, FL (33973)

6:30 PM EDT on September 03, 2015 (GMT -0400)
Unger Ave | | Change Station
CLOSE
Current Station
Personal Weather Station
Location: Fortmyers, FL
Elevation: 49 ft
Nearby Weather Stations

Elev 49 ft 26.55 °N, 81.66 °W | Updated 10 minutes ago

Clear
Clear
92.0 °F
Feels Like 108 °F
N
7.0
Wind Variable Wind from West
Gusts 13.0 mph

Today
High -- | Low -- °F
--% Chance of Precip.
Yesterday
High -- | Low -- °F
Precip. -- in
7:07 AM 7:44 PM
Waning Gibbous, 66% visible
Pressure 29.91 in
Visibility 10.0 miles
Clouds Few 4700 ft
Scattered Clouds 11000 ft
Heat Index 108 °F
Dew Point 79 °F
Humidity 65%
Rainfall 0.00 in
Snow Depth Not available.
UV 2 out of 12
Pollen 4.70 out of 12
Air Quality Not available.
Flu Activity Not available.
METAR KRSW 032153Z 31009KT 10SM FEW047 SCT110 33/23 A2991 RMK AO2 LTG DSNT E-S SLP126 T03330228
Pressure 29.91 in
Visibility 10.0 miles
Clouds Few 4700 ft
Scattered Clouds 11000 ft
Heat Index 108 °F
Dew Point 79 °F
Humidity 65%
Rainfall 0.00 in
Snow Depth Not available.
UV 2 out of 12
Pollen 4.70 out of 12
Air Quality Not available.
Flu Activity Not available.
METAR KRSW 032153Z 31009KT 10SM FEW047 SCT110 33/23 A2991 RMK AO2 LTG DSNT E-S SLP126 T03330228

10-Day Weather Forecast

×

Almanac

Astronomy

Sep. 03, 2015 Rise Set
Actual Time
Civil Twilight
Nautical Twilight
Astronomical Twilight
Moon
Length of Visible Light
Length of Day
Tomorrow will be .
, % of the Moon is Illuminated

Today's Extremes

State Highs State Lows

Community

WunderPhotos

Upload Photos

1,852,048 photos uploaded!

WunderBlogs® & News

Nearby

Air Quality

  Air Quality AQ Index Pollutant
Not available.

Snow Depth

Station Depth Elevation

Earthquake Activity

City Distance Mag. Time & Date
Minimum magnitude displayed is 2.5.

Coastal Water Temperatures

Place Temperature

Stations

Nearby Weather Stations

Station Location Temp. Windchill Dew Point Humidity Wind Precip. Elev Updated Type